Rhodesville, Connecticut
Current Conditions -  °F | °C
As of 7:52 PM on Tuesday 21 Oct 2014 (Local Time) from KIJD Reporting Station
Overcast Overcast  
Wind Chill: 58°   Ceiling: 10000
Heat Index: 58°   Visibility: 10mi
Dew Point: 49°   Wind: 5mph
Humidity: 72%   Direction: 340°NNW
Pressure: 29.91"   Gusts: NA
Location:  41.91°N, 71.8739°W
Report Text: KIJD 212352Z AUTO 34004KT 10SM FEW080 OVC100 14/09 A2991 RMK AO2 SLP129 60000 T01440094 10200 20144 53011
Loading
Personal Weather Stations






























Interactive Weather Map
Tropical Storm Tracking
New forecast layout! Learn more

10-Day Weather Forecast

Advertisements
Track Severe Weather on mobile